AirNav   Duncan Aviation - Near you to keep you flying
 
 1521 users online  

04KS Kraemer Airfield
Minneola, Kansas, USA

GOING TO MINNEOLA?


FAA INFORMATION EFFECTIVE 15 JULY 2021

Location

FAA Identifier: 04KS
Lat/Long: 37-23-54.7694N 100-02-13.5391W
37-23.912823N 100-02.225652W
37.3985471,-100.0370942
(estimated)
Elevation: 2551 ft. / 778 m
From city: 2 miles SW of MINNEOLA, KS
Time zone: UTC -5 (UTC -6 during Standard Time)
Zip code: 67865

Airport Operations

Airport use: Private use. Permission required prior to landing
Activation date: 08/2016
Control tower: no
ARTCC: KANSAS CITY CENTER
FSS: WICHITA FLIGHT SERVICE STATION
Attendance: 
Segmented circle: no

Airport Communications

WX AWOS-3 at MEJ (17 nm SW): 119.425 (620-873-8447)

Nearby radio navigation aids

VOR radial/distance  VOR name  Freq  Var
DDCr175/27.2DODGE CITY VORTAC108.2008E

Airport Services

Runway Information

Runway 9/27

Dimensions: 2000 x 60 ft. / 610 x 18 m
Surface: turf
RUNWAY 9  RUNWAY 27
Latitude: 37-23.932333N37-23.933667N
Longitude: 100-02.481167W100-02.068000W
Elevation: 2551.0 ft.2547.0 ft.
Traffic pattern: leftleft

Runway 3/21

Dimensions: 1400 x 60 ft. / 427 x 18 m
Surface: turf
RUNWAY 3  RUNWAY 21
Latitude: 37-23.790833N37-23.977167N
Longitude: 100-02.241000W100-02.070500W
Elevation: 2546.0 ft.2547.0 ft.
Traffic pattern: leftleft

Airport Ownership and Management from official FAA records

Ownership: Privately-owned
Owner: DAVID AND DEB KRAEMER
603 COUNTY RD 5
MINNEOLA, KS 67865
Phone (785) 826-0941
Manager: DAVID AND DEB KRAEMER
603 COUNTY RD 5
MINNEOLA, KS 67865
Phone (785) 826-0941
DKRAEMER@LIVE.COM

Airport Operational Statistics

Aircraft based on the field: 1
Single engine airplanes: 1
    

Additional Remarks

FOR CD CTC KANSAS CITY ARTCC AT 913-254-8508.

Instrument Procedures

There are no published instrument procedures at 04KS.

Some nearby airports with instrument procedures:

KMEJ - Meade Municipal Airport (17 nm SW)
KDDC - Dodge City Regional Airport (22 nm N)
3K8 - Comanche County Airport (35 nm E)
K79 - Jetmore Municipal Airport (36 nm N)
KBFK - Buffalo Municipal Airport (38 nm SE)
 
Loc | Ops | Rwys | IFR | FBO | Links
Com | Nav | Svcs | Stats | Notes

AirBoss

 
Aerial photo
No photo
 
Airport distance calculator
Flying to Kraemer Airfield? Find the distance to fly.

From to 04KS

Sunrise and sunset
Times for 05-Aug-2021
 Local
(UTC-5)
 Zulu
(UTC)
Morning civil twilight06:2011:20
Sunrise06:4911:49
Sunset20:4301:43
Evening civil twilight21:1202:12

Current date and time
Zulu (UTC)  05-Aug-2021 14:27:53
Local (UTC-5)  05-Aug-2021 09:27:53
 
METAR
KDDC 
22nm N 
051352Z AUTO 21006KT 5SM HZ CLR 22/16 A3012 RMK AO2 SLP171 T02220156
K3K8 
35nm E 
051415Z AUTO 00000KT 9SM CLR 25/16 A3013 RMK AO2
K19S 
38nm W 
051410Z AUTO 22007KT 4SM HZ CLR 21/16 A3015 RMK AO2 T02110156
TAF
KDDC 
22nm N 
051157Z 0512/0612 22008KT P6SM SCT200 TEMPO 0512/0515 5SM HZ FM051700 21012G18KT P6SM SKC FM060000 15009KT P6SM SKC
NOTAMs
Click for the latest NOTAMs
NOTAMs are issued by the DoD/FAA and will open in a separate window not controlled by AirNav.

 

 
 

Would you like to see your business listed on this page?

 If your business provides an interesting product or service to pilots, flight crews, aircraft, or users of the Kraemer Airfield, you should consider listing it here.  To start the listing process, click on the button below
 
Add a business
 

Other Pages about Kraemer Airfield

Update a link
 
Copyright © AirNav, LLC. All rights reserved. Privacy Policy  Contact